Sonic Adventure (DX): Overall Rankings

Records: Times | Rings | Scores | Races | Bosses | Freestyle
Leaders: Times | Rings | Scores | Races | Bosses | Freestyle | Overall
Rank Player Percent Points Date Grade
1 Sonicspeedruner 98.4% 260 08-02-15 S
2 DarkPolarNight 96.1% 629 08-02-15 A
3 Gamepro011 94.5% 901 08-02-15 A
4 Jawzun 93.8% 1015 08-02-15 A
5 Dashjump 91.6% 1371 08-02-15 A
6 DarkspinesSonic 90.6% 1529 08-02-15 A
7 Avento128bits 90.2% 1603 08-02-15 A
8 ike6252 90.0% 1629 08-02-15 A
9 F-Man 88.3% 1916 08-02-15 A
10 HyperSonic7701 85.0% 2458 08-02-15 A
11 Coolfansonic 83.8% 2644 08-02-15 A
12 yoshifan 83.4% 2715 08-02-15 A
13 frankoredstrato 82.9% 2791 08-02-15 A
14 TheRealShadnic 82.0% 2942 08-02-15 A
15 francisco 81.9% 2956 08-02-15 A
16 Marth 81.6% 3005 08-02-15 A
17 InferSaime 80.3% 3221 08-02-15 A
18 PfoSonic 79.9% 3286 08-02-15 B
19 Paragod 79.5% 3361 08-02-15 B
20 THC98 78.3% 3552 08-02-15 B
21 Stefan 76.2% 3900 08-02-15 B
22 RPGnutter 73.9% 4268 08-02-15 B
23 bertin 73.8% 4283 08-02-15 B
24 sonicam 71.6% 4649 08-02-15 B
25 Combo 65.6% 5638 08-02-15 B
26 drminus 65.0% 5737 08-02-15 B
27 SkyLights 64.3% 5842 08-02-15 B
28 xXMegaManXx 63.6% 5971 08-02-15 B
29 Diamond 62.7% 6105 08-02-15 B
30 OmegaDJ 60.3% 6512 08-02-15 B
31 GerbilSoft 60.2% 6516 08-02-15 B
32 Auriman1 60.2% 6529 08-02-15 B
33 magnum12 59.3% 6678 08-02-15 C
34 Dawid8404 59.1% 6701 08-02-15 C
35 Thorn 57.2% 7019 08-02-15 C
36 P1 Pause 56.9% 7059 08-02-15 C
37 mike89 55.8% 7251 08-02-15 C
38 chainchumper 54.1% 7525 08-02-15 C
39 Dave Cramer 53.9% 7561 08-02-15 C
40 Groudon199 53.8% 7565 08-02-15 C
41 Parax 53.2% 7663 08-02-15 C
42 Shadow Jacky 52.7% 7756 08-02-15 C
43 Psymar 47.5% 8599 08-02-15 C
44 Chao_Fan 45.8% 8890 08-02-15 C
45 Arch 45.5% 8937 08-02-15 C
46 mauserman 45.3% 8959 08-02-15 C
47 Quartz 44.6% 9078 08-02-15 C
48 teamblackarms 43.6% 9242 08-02-15 C
49 Psyknux 43.5% 9256 08-02-15 C
50 James_Bertolli 42.9% 9366 08-02-15 C
51 NintenDan 42.4% 9448 08-02-15 C
52 Webber3000 41.8% 9548 08-02-15 C
53 Turbos 41.7% 9565 08-02-15 C
54 Fr3nZy 41.6% 9568 08-02-15 C
55 Ring Rush 41.6% 9569 08-02-15 C
56 Cream147 41.3% 9621 08-02-15 C
57 videogamemaster777 41.2% 9646 08-02-15 C
58 Siavash Tazari 40.9% 9692 08-02-15 C
59 buddychaos0415 40.5% 9752 08-02-15 C
60 SadisticMystic 39.9% 9853 08-02-15 D
61 eggFL 39.0% 10007 08-02-15 D
62 Redd 38.7% 10048 08-02-15 D
63 SB737 37.4% 10268 08-02-15 D
64 supersonicfan 36.2% 10458 08-02-15 D
65 FuzZerd 35.2% 10619 08-02-15 D
66 elecmouse101 34.4% 10748 08-02-15 D
67 supersonic465 34.3% 10777 08-02-15 D
68 Austinf 33.6% 10879 08-02-15 D
69 metanightmare22 32.9% 11009 08-02-15 D
70 Aitamen 32.8% 11021 08-02-15 D
71 dabestgamer 32.6% 11057 08-02-15 D
72 MiStEr_ShAoLiN 32.5% 11060 08-02-15 D
73 Cyan Ryan 32.5% 11069 08-02-15 D
74 itsPersonnal 31.7% 11193 08-02-15 D
75 Cybrax 31.0% 11308 08-02-15 D
76 Andrea Ritsu 30.6% 11376 08-02-15 D
77 danieldude 30.4% 11406 08-02-15 D
78 SilvertheAlmighty 30.4% 11409 08-02-15 D
79 VMU Player Banned 28.8% 11669 08-02-15 D
80 Omega Rafael Santos 28.5% 11726 08-02-15 D
81 Staf 28.1% 11793 08-02-15 D
82 The T 27.8% 11833 08-02-15 D
83 EngiNerd 27.5% 11893 08-02-15 D
84 lordmetalsonic 26.8% 12000 08-02-15 D
85 Hipertails12 26.7% 12013 08-02-15 D
86 GreatStar 26.3% 12092 08-02-15 D
87 welldooder64 26.2% 12097 08-02-15 D
88 Sondow 26.1% 12123 08-02-15 D
89 Mastakirby 25.8% 12159 08-02-15 D
90 The Great Lord Mick 25.8% 12160 08-02-15 D
91 LinksDarkArrows 25.6% 12193 08-02-15 D
92 Nimrod 25.5% 12208 08-02-15 D
93 Skylace 24.8% 12334 08-02-15 D
94 Rolken 23.3% 12583 08-02-15 D
95 Xia 21.7% 12832 08-02-15 D
96 a_moustache 21.7% 12842 08-02-15 D
97 Kogen Player Banned 21.6% 12859 08-02-15 D
98 Spinballwizard 21.5% 12873 08-02-15 D
99 Don 21.3% 12898 08-02-15 D
100 Miles9999 21.2% 12926 08-02-15 D
101 Cutiefox 21.1% 12933 08-02-15 D
102 Game_Complete 21.1% 12941 08-02-15 D
103 f0rever_zer0 21.1% 12943 08-02-15 D
104 andres430 20.3% 13064 08-02-15 D
105 Cruizer 20.2% 13078 08-02-15 D
106 iSonicKid2K 20.0% 13125 08-02-15 D
107 SADXTryHard 19.8% 13154 08-02-15 E
108 GarnetPrincess 19.3% 13235 08-02-15 E
109 AxlThunder 18.7% 13328 08-02-15 E
110 knuckles_sonic8 18.7% 13332 08-02-15 E
111 Team_Yoshi 18.2% 13415 08-02-15 E
112 KinkyCadence 18.0% 13440 08-02-15 E
113 The Knuckles Chao 17.9% 13463 08-02-15 E
114 Termon 17.7% 13488 08-02-15 E
115 FoxBoy 17.6% 13504 08-02-15 E
116 LittleBigness 17.6% 13518 08-02-15 E
117 SonicWinDX 17.4% 13543 08-02-15 E
118 Sonic Singularity 15.5% 13857 08-02-15 E
119 Pokemonmaster888 15.5% 13862 08-02-15 E
120 Drakodan 14.4% 14035 08-02-15 E
121 BigAL49 14.4% 14039 08-02-15 E
122 SilverSonic 14.3% 14055 08-02-15 E
123 MPit08 14.1% 14088 08-02-15 E
123 WeegeeZV 14.1% 14088 08-02-15 E
125 Mo Player Banned 14.0% 14100 08-02-15 E
126 Cod4Scopes 13.4% 14198 08-02-15 E
126 Jerzia 13.4% 14198 08-02-15 E
128 HyperSonic64 13.2% 14233 08-02-15 E
129 booo95 13.1% 14251 08-02-15 E
130 Chawkk 13.0% 14261 08-02-15 E
131 paulie9990 13.0% 14270 08-02-15 E
132 Hunters13 12.9% 14277 08-02-15 E
133 SuperSonic101 12.9% 14279 08-02-15 E
134 Maxinfamily 12.7% 14322 08-02-15 E
135 Kanimayo_Jp 12.5% 14355 08-02-15 E
136 PsyBorg 12.4% 14360 08-02-15 E
137 Flying Fox 12.4% 14364 08-02-15 E
138 BrokenArthritis 12.3% 14383 08-02-15 E
139 LilZero 12.2% 14394 08-02-15 E
140 Therio 11.7% 14477 08-02-15 E
141 sonicspeed 11.6% 14504 08-02-15 E
142 douglas 11.5% 14521 08-02-15 E
143 Matt_TY 11.2% 14569 08-02-15 E
144 joecoolgames 10.5% 14670 08-02-15 E
145 Cooljay 10.5% 14679 08-02-15 E
146 SeaWolf 10.5% 14684 08-02-15 E
147 TFEC Headshot 9.9% 14776 08-02-15 E
148 welshmoose05 9.8% 14788 08-02-15 E
149 crazy1993 9.6% 14829 08-02-15 E
150 OddCook 9.5% 14834 08-02-15 E
151 Mcshuggets 9.5% 14840 08-02-15 E
152 videogamer1014 9.2% 14885 08-02-15 E
153 imazor017 9.2% 14887 08-02-15 E
154 nuckrieg 9.0% 14915 08-02-15 E
155 niscool 9.0% 14921 08-02-15 E
156 SonicAD 9.0% 14925 08-02-15 E
157 SirTobbii 8.8% 14954 08-02-15 E
158 Shadowthegreat 8.7% 14974 08-02-15 E
159 superjupi 8.7% 14975 08-02-15 E
160 SaviourDC 8.4% 15018 08-02-15 E
161 iarebored 8.4% 15019 08-02-15 E
162 sonamyfan666 8.3% 15036 08-02-15 E
163 Werey 8.3% 15044 08-02-15 E
164 SonicKnuckles 8.2% 15056 08-02-15 E
165 adf 7.9% 15106 08-02-15 E
166 ArcticDragon 7.8% 15113 08-02-15 E
167 Megaman EXE565 7.7% 15144 08-02-15 E
168 Platformer 7.4% 15185 08-02-15 E
169 Mariobutch 7.4% 15192 08-02-15 E
170 FocusSight64 7.3% 15202 08-02-15 E
171 Swift Hobo 7.2% 15224 08-02-15 E
172 wheatrich 7.2% 15225 08-02-15 E
173 timpkmn89 7.2% 15226 08-02-15 E
174 ethmar 7.1% 15236 08-02-15 E
175 Rickyman48 7.0% 15246 08-02-15 E
176 KitsuneYamaro 6.7% 15302 08-02-15 E
177 Triseena 6.6% 15317 08-02-15 E
178 CyberShadow 6.5% 15338 08-02-15 E
179 slade23 6.4% 15357 08-02-15 E
180 Starlight Sable 6.3% 15358 08-02-15 E
181 dShadow 6.3% 15366 08-02-15 E
182 IsisDazs 6.2% 15380 08-02-15 E
183 BlankTH 6.0% 15418 08-02-15 E
184 Monkeh 5.8% 15450 08-02-15 E
185 Richied 5.7% 15471 08-02-15 E
186 DaDude 5.6% 15482 08-02-15 E
187 SonicU260 5.6% 15488 08-02-15 E
188 sonicd5 5.5% 15499 08-02-15 E
189 Zip 5.4% 15516 08-02-15 E
190 Kirbymon30 5.1% 15565 08-02-15 E
191 tal39h 5.1% 15568 08-02-15 E
192 Drflash55 4.8% 15616 08-02-15 E
192 soniccoloursunleashed 4.8% 15616 08-02-15 E
194 Yish 4.7% 15631 08-02-15 E
195 neaolas 4.6% 15642 08-02-15 E
196 Bass 4.6% 15648 08-02-15 E
197 Sonicsuperstar1 4.5% 15656 08-02-15 E
198 UninspiredUsername 4.5% 15657 08-02-15 E
199 superiorsonic 4.5% 15661 08-02-15 E
200 zapp 4.5% 15668 08-02-15 E
201 gamefreak1292 4.4% 15678 08-02-15 E
202 Chaos_Overlord 4.1% 15731 08-02-15 E
203 TakaRikka 4.0% 15748 08-02-15 E
204 Valfore 3.9% 15756 08-02-15 E
205 ShinigamiMachine 3.8% 15775 08-02-15 E
206 Regano1000 3.7% 15793 08-02-15 E
207 MK 3.6% 15812 08-02-15 E
208 Ace747 3.5% 15824 08-02-15 E
209 Illidan 3.2% 15872 08-02-15 E
210 HHNNBBHHN 3.2% 15879 08-02-15 E
211 Venick409 3.1% 15885 08-02-15 E
212 Brian_pso 3.1% 15894 08-02-15 E
213 Sithwarrior26 3.0% 15903 08-02-15 E
214 TheChaosEmeraIds 2.9% 15923 08-02-15 E
215 ingx24 2.9% 15924 08-02-15 E
216 Nickson98 2.8% 15935 08-02-15 E
217 SkyBon 2.8% 15936 08-02-15 E
218 FSSRandomvids 2.8% 15946 08-02-15 E
219 Fozer 2.7% 15950 08-02-15 E
220 sonic29887 2.7% 15955 08-02-15 E
221 Colomb_30 2.7% 15964 08-02-15 E
222 TheUltraBlur 2.6% 15972 08-02-15 E
223 1stKirbyever 2.5% 15984 08-02-15 E
224 Th4tN1nj4Turtl3 2.3% 16016 08-02-15 E
225 Cort_pso 2.3% 16018 08-02-15 E
226 Doom-9 2.3% 16023 08-02-15 E
227 ieatatsonic 2.2% 16036 08-02-15 E
228 Mariosonic15 2.2% 16037 08-02-15 E
229 SonataSpinDash 2.2% 16043 08-02-15 E
230 SuperSonic71087 2.2% 16044 08-02-15 E
231 MStitomix 2.1% 16051 08-02-15 E
232 HermitHelmet 2.1% 16060 08-02-15 E
233 Artie 2.0% 16070 08-02-15 E
234 Got4n 2.0% 16071 08-02-15 E
235 Questionguy555 2.0% 16078 08-02-15 E
236 Jose_15 1.9% 16080 08-02-15 E
237 djmat 1.8% 16098 08-02-15 E
238 SuperSonicfan9595 1.8% 16101 08-02-15 E
239 sonicandamy 1.7% 16114 08-02-15 E
240 LancexExWx 1.7% 16123 08-02-15 E
241 Heroes_Hater 1.7% 16127 08-02-15 E
241 son1cgu1tar 1.7% 16127 08-02-15 E
243 Paixii 1.6% 16130 08-02-15 E
244 BallzeH 1.5% 16148 08-02-15 E
245 Jamixesa 1.5% 16155 08-02-15 E
245 Mankster101 1.5% 16155 08-02-15 E
247 BecauseWarAnvil 1.5% 16158 08-02-15 E
248 Crydio 1.5% 16161 08-02-15 E
249 RealProjectMVP1 PSN 1.4% 16168 08-02-15 E
249 Shanekilz 1.4% 16168 08-02-15 E
251 SpiritDragon1995 1.4% 16169 08-02-15 E
252 ReuelBrony 1.4% 16174 08-02-15 E
253 stanski 1.3% 16180 08-02-15 E
254 MarewBFN 1.3% 16185 08-02-15 E
255 Sonique Hedgehog 1.3% 16189 08-02-15 E
256 Blue Infamy 1.2% 16198 08-02-15 E
257 p0ker 1.2% 16199 08-02-15 E
258 ErrortheCucco 1.2% 16208 08-02-15 E
259 Arthas 1.2% 16211 08-02-15 E
259 Rikum22 1.2% 16211 08-02-15 E
261 sonic1001 1.1% 16219 08-02-15 E
262 WingedInsignia 1.1% 16222 08-02-15 E
263 syco1098 1.1% 16226 08-02-15 E
264 AJSIV 1.1% 16227 08-02-15 E
265 Sonic the Hedgehod16 1.0% 16230 08-02-15 E
266 sonicfan9 1.0% 16233 08-02-15 E
267 Calfd 1.0% 16238 08-02-15 E
268 BlackArmsShadow 0.9% 16247 08-02-15 E
269 themachoman202 0.9% 16251 08-02-15 E
270 Ben1502 0.9% 16257 08-02-15 E
271 Greham Adelphis 0.9% 16259 08-02-15 E
271 shadowblast63 Player Banned 0.9% 16259 08-02-15 E
273 Fivavoa 0.9% 16260 08-02-15 E
273 MastaToken 0.9% 16260 08-02-15 E
275 Mr. Jones 0.8% 16262 08-02-15 E
276 arcfx1985 0.8% 16264 08-02-15 E
276 darkstarblaze 0.8% 16264 08-02-15 E
278 ptorflaxendrosis 0.8% 16265 08-02-15 E
279 FlandreScarlet9999vr 0.8% 16269 08-02-15 E
279 Gvozdevik 0.8% 16269 08-02-15 E
279 Knuckles 0.8% 16269 08-02-15 E
282 Zeldocto 0.8% 16274 08-02-15 E
283 KaM Mark MaK 0.7% 16278 08-02-15 E
284 BeeAwwb 0.7% 16281 08-02-15 E
285 ShadouZaHejjihoggu 0.7% 16285 08-02-15 E
286 Sonic62 0.7% 16290 08-02-15 E
287 darkersupershadic 0.6% 16294 08-02-15 E
288 Sogeking 0.6% 16295 08-02-15 E
289 Shadygamerfreak 0.6% 16297 08-02-15 E
290 dragondragon18 0.6% 16298 08-02-15 E
291 SonicK100 0.6% 16299 08-02-15 E
292 Grady219 0.6% 16300 08-02-15 E
292 Sarger001 0.6% 16300 08-02-15 E
294 Jawaah 0.6% 16303 08-02-15 E
295 Antek 0.6% 16309 08-02-15 E
296 SilverK 0.5% 16310 08-02-15 E
297 Klaus 0.5% 16311 08-02-15 E
298 SpinDashMaster 0.5% 16314 08-02-15 E
299 BioShadow 0.5% 16316 08-02-15 E
300 Videogamer123 0.5% 16319 08-02-15 E
301 Badlex727 0.4% 16328 08-02-15 E
302 oTaiIilLsS 0.4% 16333 08-02-15 E
303 Egor305 0.4% 16334 08-02-15 E
304 Mad Andy 0.4% 16335 08-02-15 E
305 isaihtb11 0.4% 16336 08-02-15 E
306 OhNoes! 0.4% 16337 08-02-15 E
307 S-MS32X-S 0.4% 16339 08-02-15 E
307 zaktu40 0.4% 16339 08-02-15 E
309 gaara1234 0.4% 16342 08-02-15 E
310 gamed00d 0.3% 16344 08-02-15 E
311 Mister_Slick 0.3% 16352 08-02-15 E
312 Sonic06Fan 0.3% 16354 08-02-15 E
313 Rush Hero 0.3% 16356 08-02-15 E
314 Iwannabelink 0.2% 16360 08-02-15 E
314 SonicMega167 0.2% 16360 08-02-15 E
316 sonknuck23 0.2% 16365 08-02-15 E
317 DanielTheFalcon 0.2% 16370 08-02-15 E
317 gamer1245 0.2% 16370 08-02-15 E
319 Burningskull123 0.1% 16379 08-02-15 E
320 Sonicontherun 0.1% 16388 08-02-15 E
321 Lil_Dude 0.0% 16392 08-02-15 E
322 antiwwe 0.0% 16394 08-02-15 E
323 Cbwade15 0.0% 16398 08-02-15 E
323 Genuine Hedgehog 0.0% 16398 08-02-15 E
325 Tyrouble 0.0% 16401 08-02-15 E
326 MegabombBlade 0.0% 16408 08-02-15 E
326 neji_hyuuga 0.0% 16408 08-02-15 E
326 Over 0.0% 16408 08-02-15 E
326 sdj6707 Player Banned 0.0% 16408 08-02-15 E
326 Tran Sonic Fan Player Banned 0.0% 16408 08-02-15 E

This page is using the New Data Table System. [FUTURE]


-- Back to Normal Skin --
Game ID: 3 | Category ID: 10
Hits: 64,181 | Hits This Month: 34 | DB Calls: 16 | Mem Usage: 5.44 MB | Time: 0.44s | Printable

The Sonic Center v3.9
Copyright 2003-2011 by The Sonic Center Team.